sensor_id;sensor_type;location;lat;lon;timestamp;P1;durP1;ratioP1;P2;durP2;ratioP2
22557;SDS011;11445;53.816;8.902;2024-03-06T00:01:32;18.00;;;10.35;;
22557;SDS011;11445;53.816;8.902;2024-03-06T00:03:59;19.40;;;10.52;;
22557;SDS011;11445;53.816;8.902;2024-03-06T00:06:28;21.67;;;10.38;;
22557;SDS011;11445;53.816;8.902;2024-03-06T00:08:55;15.07;;;10.00;;
22557;SDS011;11445;53.816;8.902;2024-03-06T00:11:22;17.20;;;10.60;;
22557;SDS011;11445;53.816;8.902;2024-03-06T00:13:49;17.98;;;10.23;;
22557;SDS011;11445;53.816;8.902;2024-03-06T00:16:17;20.63;;;10.88;;
22557;SDS011;11445;53.816;8.902;2024-03-06T00:18:45;20.52;;;10.52;;
22557;SDS011;11445;53.816;8.902;2024-03-06T00:21:12;19.33;;;11.20;;
22557;SDS011;11445;53.816;8.902;2024-03-06T00:23:38;19.25;;;10.52;;
22557;SDS011;11445;53.816;8.902;2024-03-06T00:26:05;23.25;;;11.27;;
22557;SDS011;11445;53.816;8.902;2024-03-06T00:28:32;17.15;;;10.75;;
22557;SDS011;11445;53.816;8.902;2024-03-06T00:30:59;20.90;;;11.10;;
22557;SDS011;11445;53.816;8.902;2024-03-06T00:33:27;18.85;;;10.52;;
22557;SDS011;11445;53.816;8.902;2024-03-06T00:35:54;21.15;;;11.57;;
22557;SDS011;11445;53.816;8.902;2024-03-06T00:38:21;21.08;;;11.68;;
22557;SDS011;11445;53.816;8.902;2024-03-06T00:40:48;17.45;;;10.35;;
22557;SDS011;11445;53.816;8.902;2024-03-06T00:43:15;21.63;;;11.05;;
22557;SDS011;11445;53.816;8.902;2024-03-06T00:45:42;20.35;;;11.23;;
22557;SDS011;11445;53.816;8.902;2024-03-06T00:48:09;21.60;;;11.52;;
22557;SDS011;11445;53.816;8.902;2024-03-06T00:50:37;21.00;;;11.43;;
22557;SDS011;11445;53.816;8.902;2024-03-06T00:53:04;17.58;;;11.32;;
22557;SDS011;11445;53.816;8.902;2024-03-06T00:55:31;25.40;;;11.93;;
22557;SDS011;11445;53.816;8.902;2024-03-06T00:57:58;20.95;;;11.80;;
22557;SDS011;11445;53.816;8.902;2024-03-06T01:00:25;24.90;;;11.70;;
22557;SDS011;11445;53.816;8.902;2024-03-06T01:02:52;23.77;;;11.70;;
22557;SDS011;11445;53.816;8.902;2024-03-06T01:05:19;23.63;;;12.25;;
22557;SDS011;11445;53.816;8.902;2024-03-06T01:07:47;26.48;;;12.63;;
22557;SDS011;11445;53.816;8.902;2024-03-06T01:10:14;25.33;;;13.18;;
22557;SDS011;11445;53.816;8.902;2024-03-06T01:12:40;27.08;;;12.55;;
22557;SDS011;11445;53.816;8.902;2024-03-06T01:15:10;27.73;;;12.85;;
22557;SDS011;11445;53.816;8.902;2024-03-06T01:17:37;28.05;;;13.73;;
22557;SDS011;11445;53.816;8.902;2024-03-06T01:20:04;30.25;;;13.15;;
22557;SDS011;11445;53.816;8.902;2024-03-06T01:22:33;24.85;;;12.27;;
22557;SDS011;11445;53.816;8.902;2024-03-06T01:25:01;26.40;;;13.95;;
22557;SDS011;11445;53.816;8.902;2024-03-06T01:27:29;24.90;;;13.30;;
22557;SDS011;11445;53.816;8.902;2024-03-06T01:29:56;28.77;;;13.05;;
22557;SDS011;11445;53.816;8.902;2024-03-06T01:32:23;26.08;;;13.32;;
22557;SDS011;11445;53.816;8.902;2024-03-06T01:34:50;29.70;;;13.75;;
22557;SDS011;11445;53.816;8.902;2024-03-06T01:37:17;22.02;;;11.70;;
22557;SDS011;11445;53.816;8.902;2024-03-06T01:39:43;23.42;;;11.60;;
22557;SDS011;11445;53.816;8.902;2024-03-06T01:42:12;27.17;;;12.65;;
22557;SDS011;11445;53.816;8.902;2024-03-06T01:44:39;17.98;;;9.82;;
22557;SDS011;11445;53.816;8.902;2024-03-06T01:47:06;20.38;;;10.77;;
22557;SDS011;11445;53.816;8.902;2024-03-06T01:49:33;17.45;;;10.05;;
22557;SDS011;11445;53.816;8.902;2024-03-06T01:52:00;20.83;;;10.25;;
22557;SDS011;11445;53.816;8.902;2024-03-06T01:54:28;27.33;;;10.60;;
22557;SDS011;11445;53.816;8.902;2024-03-06T01:56:56;24.83;;;10.73;;
22557;SDS011;11445;53.816;8.902;2024-03-06T01:59:28;18.45;;;8.68;;
22557;SDS011;11445;53.816;8.902;2024-03-06T02:01:56;22.92;;;10.80;;
22557;SDS011;11445;53.816;8.902;2024-03-06T02:04:23;24.80;;;10.25;;
22557;SDS011;11445;53.816;8.902;2024-03-06T02:06:53;22.40;;;9.52;;
22557;SDS011;11445;53.816;8.902;2024-03-06T02:09:20;26.73;;;10.18;;
22557;SDS011;11445;53.816;8.902;2024-03-06T02:11:48;18.95;;;8.80;;
22557;SDS011;11445;53.816;8.902;2024-03-06T02:14:15;21.98;;;8.90;;
22557;SDS011;11445;53.816;8.902;2024-03-06T02:16:44;24.23;;;10.07;;
22557;SDS011;11445;53.816;8.902;2024-03-06T02:19:10;26.25;;;9.48;;
22557;SDS011;11445;53.816;8.902;2024-03-06T02:21:39;16.17;;;9.15;;
22557;SDS011;11445;53.816;8.902;2024-03-06T02:24:05;17.98;;;9.40;;
22557;SDS011;11445;53.816;8.902;2024-03-06T02:26:33;18.75;;;8.63;;
22557;SDS011;11445;53.816;8.902;2024-03-06T02:29:00;21.38;;;9.63;;
22557;SDS011;11445;53.816;8.902;2024-03-06T02:31:27;20.05;;;9.13;;
22557;SDS011;11445;53.816;8.902;2024-03-06T02:33:54;19.13;;;10.40;;
22557;SDS011;11445;53.816;8.902;2024-03-06T02:36:20;16.80;;;9.07;;
22557;SDS011;11445;53.816;8.902;2024-03-06T02:38:49;16.52;;;9.25;;
22557;SDS011;11445;53.816;8.902;2024-03-06T02:41:15;20.88;;;9.63;;
22557;SDS011;11445;53.816;8.902;2024-03-06T02:43:42;17.25;;;9.38;;
22557;SDS011;11445;53.816;8.902;2024-03-06T02:46:09;18.00;;;9.70;;
22557;SDS011;11445;53.816;8.902;2024-03-06T02:48:36;16.73;;;9.80;;
22557;SDS011;11445;53.816;8.902;2024-03-06T02:51:03;20.05;;;9.73;;
22557;SDS011;11445;53.816;8.902;2024-03-06T02:53:30;16.95;;;10.10;;
22557;SDS011;11445;53.816;8.902;2024-03-06T02:55:58;20.13;;;10.57;;
22557;SDS011;11445;53.816;8.902;2024-03-06T02:58:25;19.00;;;9.75;;
22557;SDS011;11445;53.816;8.902;2024-03-06T03:00:55;15.88;;;10.00;;
22557;SDS011;11445;53.816;8.902;2024-03-06T03:03:22;23.40;;;10.85;;
22557;SDS011;11445;53.816;8.902;2024-03-06T03:05:50;22.08;;;9.55;;
22557;SDS011;11445;53.816;8.902;2024-03-06T03:08:16;20.10;;;10.00;;
22557;SDS011;11445;53.816;8.902;2024-03-06T03:10:43;18.20;;;9.52;;
22557;SDS011;11445;53.816;8.902;2024-03-06T03:13:12;17.25;;;9.95;;
22557;SDS011;11445;53.816;8.902;2024-03-06T03:15:39;18.88;;;10.05;;
22557;SDS011;11445;53.816;8.902;2024-03-06T03:18:06;15.75;;;9.48;;
22557;SDS011;11445;53.816;8.902;2024-03-06T03:20:33;15.75;;;9.38;;
22557;SDS011;11445;53.816;8.902;2024-03-06T03:23:01;16.83;;;9.85;;
22557;SDS011;11445;53.816;8.902;2024-03-06T03:25:28;21.30;;;10.18;;
22557;SDS011;11445;53.816;8.902;2024-03-06T03:27:55;17.70;;;10.05;;
22557;SDS011;11445;53.816;8.902;2024-03-06T03:30:23;20.08;;;10.35;;
22557;SDS011;11445;53.816;8.902;2024-03-06T03:32:49;19.17;;;10.40;;
22557;SDS011;11445;53.816;8.902;2024-03-06T03:35:16;17.05;;;10.35;;
22557;SDS011;11445;53.816;8.902;2024-03-06T03:37:46;23.13;;;11.10;;
22557;SDS011;11445;53.816;8.902;2024-03-06T03:40:12;19.00;;;10.27;;
22557;SDS011;11445;53.816;8.902;2024-03-06T03:42:40;18.08;;;10.77;;
22557;SDS011;11445;53.816;8.902;2024-03-06T03:45:07;20.73;;;11.02;;
22557;SDS011;11445;53.816;8.902;2024-03-06T03:47:35;20.55;;;11.27;;
22557;SDS011;11445;53.816;8.902;2024-03-06T03:50:03;16.60;;;10.57;;
22557;SDS011;11445;53.816;8.902;2024-03-06T03:52:30;25.42;;;11.23;;
22557;SDS011;11445;53.816;8.902;2024-03-06T03:54:57;17.27;;;11.35;;
22557;SDS011;11445;53.816;8.902;2024-03-06T03:57:24;25.38;;;10.95;;
22557;SDS011;11445;53.816;8.902;2024-03-06T03:59:51;18.23;;;11.45;;
22557;SDS011;11445;53.816;8.902;2024-03-06T04:02:18;18.25;;;12.10;;
22557;SDS011;11445;53.816;8.902;2024-03-06T04:04:47;19.92;;;11.32;;
22557;SDS011;11445;53.816;8.902;2024-03-06T04:07:13;20.55;;;12.73;;
22557;SDS011;11445;53.816;8.902;2024-03-06T04:09:41;27.63;;;13.38;;
22557;SDS011;11445;53.816;8.902;2024-03-06T04:12:08;20.52;;;11.65;;
22557;SDS011;11445;53.816;8.902;2024-03-06T04:14:35;25.40;;;12.05;;
22557;SDS011;11445;53.816;8.902;2024-03-06T04:17:01;23.00;;;12.18;;
22557;SDS011;11445;53.816;8.902;2024-03-06T04:19:29;21.67;;;12.57;;
22557;SDS011;11445;53.816;8.902;2024-03-06T04:21:58;22.70;;;12.38;;
22557;SDS011;11445;53.816;8.902;2024-03-06T04:24:25;20.25;;;11.70;;
22557;SDS011;11445;53.816;8.902;2024-03-06T04:26:52;20.25;;;12.38;;
22557;SDS011;11445;53.816;8.902;2024-03-06T04:29:18;20.08;;;12.98;;
22557;SDS011;11445;53.816;8.902;2024-03-06T04:31:45;23.58;;;12.18;;
22557;SDS011;11445;53.816;8.902;2024-03-06T04:34:12;20.25;;;12.82;;
22557;SDS011;11445;53.816;8.902;2024-03-06T04:36:39;20.83;;;12.07;;
22557;SDS011;11445;53.816;8.902;2024-03-06T04:39:07;20.08;;;11.98;;
22557;SDS011;11445;53.816;8.902;2024-03-06T04:41:35;23.10;;;12.63;;
22557;SDS011;11445;53.816;8.902;2024-03-06T04:44:01;21.90;;;12.07;;
22557;SDS011;11445;53.816;8.902;2024-03-06T04:46:28;18.35;;;12.05;;
22557;SDS011;11445;53.816;8.902;2024-03-06T04:48:55;19.98;;;11.80;;
22557;SDS011;11445;53.816;8.902;2024-03-06T04:51:22;22.52;;;12.02;;
22557;SDS011;11445;53.816;8.902;2024-03-06T04:53:49;19.50;;;12.05;;
22557;SDS011;11445;53.816;8.902;2024-03-06T04:56:17;22.05;;;11.95;;
22557;SDS011;11445;53.816;8.902;2024-03-06T04:58:45;21.08;;;11.35;;
22557;SDS011;11445;53.816;8.902;2024-03-06T05:01:12;22.73;;;11.60;;
22557;SDS011;11445;53.816;8.902;2024-03-06T05:03:39;19.13;;;11.77;;
22557;SDS011;11445;53.816;8.902;2024-03-06T05:06:06;20.52;;;11.18;;
22557;SDS011;11445;53.816;8.902;2024-03-06T05:08:33;20.08;;;11.30;;
22557;SDS011;11445;53.816;8.902;2024-03-06T05:11:00;18.95;;;11.30;;
22557;SDS011;11445;53.816;8.902;2024-03-06T05:13:29;18.52;;;11.15;;
22557;SDS011;11445;53.816;8.902;2024-03-06T05:15:55;19.85;;;11.90;;
22557;SDS011;11445;53.816;8.902;2024-03-06T05:18:22;18.90;;;11.25;;
22557;SDS011;11445;53.816;8.902;2024-03-06T05:20:49;20.13;;;11.52;;
22557;SDS011;11445;53.816;8.902;2024-03-06T05:23:16;19.02;;;11.30;;
22557;SDS011;11445;53.816;8.902;2024-03-06T05:25:42;19.38;;;12.07;;
22557;SDS011;11445;53.816;8.902;2024-03-06T05:28:09;20.08;;;12.05;;
22557;SDS011;11445;53.816;8.902;2024-03-06T05:30:37;19.60;;;11.70;;
22557;SDS011;11445;53.816;8.902;2024-03-06T05:33:04;20.77;;;11.55;;
22557;SDS011;11445;53.816;8.902;2024-03-06T05:35:31;18.20;;;11.88;;
22557;SDS011;11445;53.816;8.902;2024-03-06T05:37:58;18.98;;;10.68;;
22557;SDS011;11445;53.816;8.902;2024-03-06T05:40:25;16.65;;;10.70;;
22557;SDS011;11445;53.816;8.902;2024-03-06T05:42:51;16.83;;;11.13;;
22557;SDS011;11445;53.816;8.902;2024-03-06T05:45:18;18.08;;;11.73;;
22557;SDS011;11445;53.816;8.902;2024-03-06T05:47:46;21.02;;;11.60;;
22557;SDS011;11445;53.816;8.902;2024-03-06T05:50:13;19.73;;;11.05;;
22557;SDS011;11445;53.816;8.902;2024-03-06T05:52:40;19.83;;;11.43;;
22557;SDS011;11445;53.816;8.902;2024-03-06T05:55:07;20.58;;;10.68;;
22557;SDS011;11445;53.816;8.902;2024-03-06T05:57:34;15.70;;;10.63;;
22557;SDS011;11445;53.816;8.902;2024-03-06T06:00:01;18.25;;;11.35;;
22557;SDS011;11445;53.816;8.902;2024-03-06T06:02:29;20.83;;;10.30;;
22557;SDS011;11445;53.816;8.902;2024-03-06T06:04:59;18.90;;;11.38;;
22557;SDS011;11445;53.816;8.902;2024-03-06T06:07:26;17.75;;;10.73;;
22557;SDS011;11445;53.816;8.902;2024-03-06T06:09:52;18.15;;;9.50;;
22557;SDS011;11445;53.816;8.902;2024-03-06T06:12:19;17.88;;;11.10;;
22557;SDS011;11445;53.816;8.902;2024-03-06T06:14:46;17.83;;;10.20;;
22557;SDS011;11445;53.816;8.902;2024-03-06T06:17:13;19.67;;;10.13;;
22557;SDS011;11445;53.816;8.902;2024-03-06T06:19:41;15.18;;;10.20;;
22557;SDS011;11445;53.816;8.902;2024-03-06T06:22:10;15.05;;;9.57;;
22557;SDS011;11445;53.816;8.902;2024-03-06T06:24:37;15.75;;;9.98;;
22557;SDS011;11445;53.816;8.902;2024-03-06T06:27:05;19.73;;;9.40;;
22557;SDS011;11445;53.816;8.902;2024-03-06T06:29:33;14.85;;;9.73;;
22557;SDS011;11445;53.816;8.902;2024-03-06T06:32:00;21.08;;;10.40;;
22557;SDS011;11445;53.816;8.902;2024-03-06T06:34:26;16.25;;;9.93;;
22557;SDS011;11445;53.816;8.902;2024-03-06T06:36:53;15.07;;;9.75;;
22557;SDS011;11445;53.816;8.902;2024-03-06T06:39:21;18.38;;;9.85;;
22557;SDS011;11445;53.816;8.902;2024-03-06T06:41:48;14.10;;;9.35;;
22557;SDS011;11445;53.816;8.902;2024-03-06T06:44:15;20.60;;;9.85;;
22557;SDS011;11445;53.816;8.902;2024-03-06T06:46:42;17.48;;;8.82;;
22557;SDS011;11445;53.816;8.902;2024-03-06T06:49:09;17.40;;;10.02;;
22557;SDS011;11445;53.816;8.902;2024-03-06T06:51:35;13.85;;;9.00;;
22557;SDS011;11445;53.816;8.902;2024-03-06T06:54:03;14.98;;;9.52;;
22557;SDS011;11445;53.816;8.902;2024-03-06T06:56:32;16.83;;;9.65;;
22557;SDS011;11445;53.816;8.902;2024-03-06T06:58:59;15.30;;;8.90;;
22557;SDS011;11445;53.816;8.902;2024-03-06T07:01:26;17.60;;;8.75;;
22557;SDS011;11445;53.816;8.902;2024-03-06T07:03:53;15.48;;;8.18;;
22557;SDS011;11445;53.816;8.902;2024-03-06T07:06:19;13.43;;;8.48;;
22557;SDS011;11445;53.816;8.902;2024-03-06T07:08:46;15.23;;;8.50;;
22557;SDS011;11445;53.816;8.902;2024-03-06T07:11:13;19.77;;;9.13;;
22557;SDS011;11445;53.816;8.902;2024-03-06T07:13:41;13.30;;;8.65;;
22557;SDS011;11445;53.816;8.902;2024-03-06T07:16:09;11.30;;;8.57;;
22557;SDS011;11445;53.816;8.902;2024-03-06T07:18:36;12.77;;;8.75;;
22557;SDS011;11445;53.816;8.902;2024-03-06T07:21:03;16.63;;;9.00;;
22557;SDS011;11445;53.816;8.902;2024-03-06T07:23:30;13.43;;;8.88;;
22557;SDS011;11445;53.816;8.902;2024-03-06T07:25:57;12.90;;;8.48;;
22557;SDS011;11445;53.816;8.902;2024-03-06T07:28:24;16.20;;;8.73;;
22557;SDS011;11445;53.816;8.902;2024-03-06T07:30:52;13.48;;;8.98;;
22557;SDS011;11445;53.816;8.902;2024-03-06T07:33:19;13.02;;;9.02;;
22557;SDS011;11445;53.816;8.902;2024-03-06T07:35:46;15.13;;;8.70;;
22557;SDS011;11445;53.816;8.902;2024-03-06T07:38:13;13.88;;;8.68;;
22557;SDS011;11445;53.816;8.902;2024-03-06T07:40:40;15.65;;;9.27;;
22557;SDS011;11445;53.816;8.902;2024-03-06T07:43:07;13.10;;;8.93;;
22557;SDS011;11445;53.816;8.902;2024-03-06T07:45:34;13.40;;;8.60;;
22557;SDS011;11445;53.816;8.902;2024-03-06T07:48:02;11.80;;;8.68;;
22557;SDS011;11445;53.816;8.902;2024-03-06T07:50:29;13.82;;;8.80;;
22557;SDS011;11445;53.816;8.902;2024-03-06T07:52:56;15.65;;;9.57;;
22557;SDS011;11445;53.816;8.902;2024-03-06T07:55:23;15.20;;;8.80;;
22557;SDS011;11445;53.816;8.902;2024-03-06T07:57:50;14.55;;;8.50;;
22557;SDS011;11445;53.816;8.902;2024-03-06T08:00:17;13.77;;;8.50;;
22557;SDS011;11445;53.816;8.902;2024-03-06T08:02:45;14.70;;;9.02;;
22557;SDS011;11445;53.816;8.902;2024-03-06T08:05:16;12.10;;;7.63;;
22557;SDS011;11445;53.816;8.902;2024-03-06T08:07:43;12.80;;;8.10;;
22557;SDS011;11445;53.816;8.902;2024-03-06T08:10:11;15.10;;;8.38;;
22557;SDS011;11445;53.816;8.902;2024-03-06T08:12:39;11.35;;;7.75;;
22557;SDS011;11445;53.816;8.902;2024-03-06T08:15:07;12.48;;;7.82;;
22557;SDS011;11445;53.816;8.902;2024-03-06T08:17:36;14.75;;;9.05;;
22557;SDS011;11445;53.816;8.902;2024-03-06T08:20:04;11.70;;;7.20;;
22557;SDS011;11445;53.816;8.902;2024-03-06T08:22:34;11.43;;;7.50;;
22557;SDS011;11445;53.816;8.902;2024-03-06T08:25:04;11.05;;;7.63;;
22557;SDS011;11445;53.816;8.902;2024-03-06T08:27:32;14.38;;;7.35;;
22557;SDS011;11445;53.816;8.902;2024-03-06T08:29:59;10.15;;;7.55;;
22557;SDS011;11445;53.816;8.902;2024-03-06T08:32:26;10.43;;;7.03;;
22557;SDS011;11445;53.816;8.902;2024-03-06T08:34:54;10.25;;;7.22;;
22557;SDS011;11445;53.816;8.902;2024-03-06T08:37:21;9.85;;;6.95;;
22557;SDS011;11445;53.816;8.902;2024-03-06T08:39:49;10.13;;;6.50;;
22557;SDS011;11445;53.816;8.902;2024-03-06T08:42:16;12.57;;;7.10;;
22557;SDS011;11445;53.816;8.902;2024-03-06T08:44:43;10.38;;;7.28;;
22557;SDS011;11445;53.816;8.902;2024-03-06T08:47:11;9.15;;;6.53;;
22557;SDS011;11445;53.816;8.902;2024-03-06T08:49:38;13.35;;;7.35;;
22557;SDS011;11445;53.816;8.902;2024-03-06T08:52:05;12.45;;;7.20;;
22557;SDS011;11445;53.816;8.902;2024-03-06T08:54:32;10.02;;;6.60;;
22557;SDS011;11445;53.816;8.902;2024-03-06T08:57:00;10.52;;;6.82;;
22557;SDS011;11445;53.816;8.902;2024-03-06T08:59:28;10.68;;;7.03;;
22557;SDS011;11445;53.816;8.902;2024-03-06T09:01:54;10.43;;;6.38;;
22557;SDS011;11445;53.816;8.902;2024-03-06T09:04:22;8.60;;;6.18;;
22557;SDS011;11445;53.816;8.902;2024-03-06T09:06:49;9.60;;;6.63;;
22557;SDS011;11445;53.816;8.902;2024-03-06T09:09:16;11.13;;;6.57;;
22557;SDS011;11445;53.816;8.902;2024-03-06T09:11:43;10.43;;;7.15;;
22557;SDS011;11445;53.816;8.902;2024-03-06T09:14:11;8.98;;;6.88;;
22557;SDS011;11445;53.816;8.902;2024-03-06T09:16:38;11.68;;;6.90;;
22557;SDS011;11445;53.816;8.902;2024-03-06T09:19:05;8.07;;;5.88;;
22557;SDS011;11445;53.816;8.902;2024-03-06T09:21:32;9.45;;;6.55;;
22557;SDS011;11445;53.816;8.902;2024-03-06T09:23:58;10.98;;;6.78;;
22557;SDS011;11445;53.816;8.902;2024-03-06T09:26:25;10.70;;;6.70;;
22557;SDS011;11445;53.816;8.902;2024-03-06T09:28:52;9.88;;;6.55;;
22557;SDS011;11445;53.816;8.902;2024-03-06T09:31:20;7.97;;;5.85;;
22557;SDS011;11445;53.816;8.902;2024-03-06T09:33:47;9.60;;;5.45;;
22557;SDS011;11445;53.816;8.902;2024-03-06T09:36:14;8.77;;;6.18;;
22557;SDS011;11445;53.816;8.902;2024-03-06T09:38:41;8.52;;;5.75;;
22557;SDS011;11445;53.816;8.902;2024-03-06T09:41:08;11.18;;;6.05;;
22557;SDS011;11445;53.816;8.902;2024-03-06T09:43:35;12.30;;;5.65;;
22557;SDS011;11445;53.816;8.902;2024-03-06T09:46:02;10.07;;;5.68;;
22557;SDS011;11445;53.816;8.902;2024-03-06T09:48:31;7.85;;;5.43;;
22557;SDS011;11445;53.816;8.902;2024-03-06T09:51:00;8.63;;;6.00;;
22557;SDS011;11445;53.816;8.902;2024-03-06T09:53:28;8.60;;;6.32;;
22557;SDS011;11445;53.816;8.902;2024-03-06T09:55:55;11.90;;;6.32;;
22557;SDS011;11445;53.816;8.902;2024-03-06T09:58:24;8.27;;;6.30;;
22557;SDS011;11445;53.816;8.902;2024-03-06T10:00:51;9.23;;;6.15;;
22557;SDS011;11445;53.816;8.902;2024-03-06T10:03:21;9.50;;;6.50;;
22557;SDS011;11445;53.816;8.902;2024-03-06T10:05:49;9.73;;;6.10;;
22557;SDS011;11445;53.816;8.902;2024-03-06T10:08:16;11.35;;;6.40;;
22557;SDS011;11445;53.816;8.902;2024-03-06T10:10:47;7.68;;;5.95;;
22557;SDS011;11445;53.816;8.902;2024-03-06T10:13:15;9.75;;;6.45;;
22557;SDS011;11445;53.816;8.902;2024-03-06T10:15:42;10.15;;;6.47;;
22557;SDS011;11445;53.816;8.902;2024-03-06T10:18:23;10.23;;;6.88;;
22557;SDS011;11445;53.816;8.902;2024-03-06T10:20:55;8.95;;;6.50;;
22557;SDS011;11445;53.816;8.902;2024-03-06T10:23:22;10.18;;;6.75;;
22557;SDS011;11445;53.816;8.902;2024-03-06T10:25:49;8.05;;;6.18;;
22557;SDS011;11445;53.816;8.902;2024-03-06T10:28:17;11.10;;;6.65;;
22557;SDS011;11445;53.816;8.902;2024-03-06T10:30:45;9.80;;;6.45;;
22557;SDS011;11445;53.816;8.902;2024-03-06T10:33:13;7.90;;;5.80;;
22557;SDS011;11445;53.816;8.902;2024-03-06T10:35:41;8.48;;;6.15;;
22557;SDS011;11445;53.816;8.902;2024-03-06T10:38:12;12.07;;;6.68;;
22557;SDS011;11445;53.816;8.902;2024-03-06T10:40:39;9.88;;;6.38;;
22557;SDS011;11445;53.816;8.902;2024-03-06T10:43:08;10.02;;;6.25;;
22557;SDS011;11445;53.816;8.902;2024-03-06T10:45:39;9.85;;;6.65;;
22557;SDS011;11445;53.816;8.902;2024-03-06T10:48:11;12.32;;;6.82;;
22557;SDS011;11445;53.816;8.902;2024-03-06T10:50:40;12.43;;;6.78;;
22557;SDS011;11445;53.816;8.902;2024-03-06T10:53:11;10.73;;;6.25;;
22557;SDS011;11445;53.816;8.902;2024-03-06T10:55:39;10.50;;;6.93;;
22557;SDS011;11445;53.816;8.902;2024-03-06T10:58:06;10.45;;;6.43;;
22557;SDS011;11445;53.816;8.902;2024-03-06T11:00:35;14.40;;;7.28;;
22557;SDS011;11445;53.816;8.902;2024-03-06T11:03:04;8.13;;;6.15;;
22557;SDS011;11445;53.816;8.902;2024-03-06T11:05:33;9.75;;;6.35;;
22557;SDS011;11445;53.816;8.902;2024-03-06T11:08:02;11.50;;;6.82;;
22557;SDS011;11445;53.816;8.902;2024-03-06T11:10:31;11.23;;;7.20;;
22557;SDS011;11445;53.816;8.902;2024-03-06T11:12:58;11.90;;;6.78;;
22557;SDS011;11445;53.816;8.902;2024-03-06T11:15:26;10.75;;;7.50;;
22557;SDS011;11445;53.816;8.902;2024-03-06T11:17:53;18.95;;;8.00;;
22557;SDS011;11445;53.816;8.902;2024-03-06T11:20:21;15.80;;;7.13;;
22557;SDS011;11445;53.816;8.902;2024-03-06T11:23:07;10.02;;;6.90;;
22557;SDS011;11445;53.816;8.902;2024-03-06T11:28:35;15.10;;;9.07;;
22557;SDS011;11445;53.816;8.902;2024-03-06T11:31:05;18.42;;;9.27;;
22557;SDS011;11445;53.816;8.902;2024-03-06T11:33:36;15.65;;;9.15;;
22557;SDS011;11445;53.816;8.902;2024-03-06T11:36:17;14.48;;;8.70;;
22557;SDS011;11445;53.816;8.902;2024-03-06T11:38:52;12.02;;;8.30;;
22557;SDS011;11445;53.816;8.902;2024-03-06T11:41:21;13.05;;;8.38;;
22557;SDS011;11445;53.816;8.902;2024-03-06T11:43:50;10.93;;;7.82;;
22557;SDS011;11445;53.816;8.902;2024-03-06T11:46:18;15.15;;;10.15;;
22557;SDS011;11445;53.816;8.902;2024-03-06T11:48:52;14.45;;;9.63;;
22557;SDS011;11445;53.816;8.902;2024-03-06T11:51:20;17.48;;;9.15;;
22557;SDS011;11445;53.816;8.902;2024-03-06T11:53:51;15.40;;;9.38;;
22557;SDS011;11445;53.816;8.902;2024-03-06T11:56:18;13.48;;;9.90;;
22557;SDS011;11445;53.816;8.902;2024-03-06T11:58:47;9.88;;;7.03;;
22557;SDS011;11445;53.816;8.902;2024-03-06T12:01:14;16.73;;;11.05;;
22557;SDS011;11445;53.816;8.902;2024-03-06T12:03:41;18.98;;;9.75;;
22557;SDS011;11445;53.816;8.902;2024-03-06T12:06:09;17.65;;;9.88;;
22557;SDS011;11445;53.816;8.902;2024-03-06T12:08:36;15.48;;;9.45;;
22557;SDS011;11445;53.816;8.902;2024-03-06T12:11:04;14.15;;;10.05;;
22557;SDS011;11445;53.816;8.902;2024-03-06T12:13:34;15.02;;;10.05;;
22557;SDS011;11445;53.816;8.902;2024-03-06T12:16:03;19.73;;;10.52;;
22557;SDS011;11445;53.816;8.902;2024-03-06T12:18:32;12.80;;;8.57;;
22557;SDS011;11445;53.816;8.902;2024-03-06T12:21:00;16.05;;;8.98;;
22557;SDS011;11445;53.816;8.902;2024-03-06T12:23:27;15.77;;;9.00;;
22557;SDS011;11445;53.816;8.902;2024-03-06T12:26:04;13.10;;;8.65;;
22557;SDS011;11445;53.816;8.902;2024-03-06T12:28:31;16.90;;;9.23;;
22557;SDS011;11445;53.816;8.902;2024-03-06T12:31:01;14.10;;;8.60;;
22557;SDS011;11445;53.816;8.902;2024-03-06T12:33:29;18.50;;;9.52;;
22557;SDS011;11445;53.816;8.902;2024-03-06T12:36:03;13.93;;;8.90;;
22557;SDS011;11445;53.816;8.902;2024-03-06T12:38:31;15.93;;;10.68;;
22557;SDS011;11445;53.816;8.902;2024-03-06T12:40:59;16.70;;;10.32;;
22557;SDS011;11445;53.816;8.902;2024-03-06T12:43:26;15.00;;;9.57;;
22557;SDS011;11445;53.816;8.902;2024-03-06T12:45:55;17.08;;;8.77;;
22557;SDS011;11445;53.816;8.902;2024-03-06T12:48:22;16.38;;;8.68;;
22557;SDS011;11445;53.816;8.902;2024-03-06T12:50:50;13.15;;;9.50;;
22557;SDS011;11445;53.816;8.902;2024-03-06T12:53:19;14.63;;;9.63;;
22557;SDS011;11445;53.816;8.902;2024-03-06T12:55:47;13.93;;;9.63;;
22557;SDS011;11445;53.816;8.902;2024-03-06T12:58:14;15.90;;;10.30;;
22557;SDS011;11445;53.816;8.902;2024-03-06T13:00:41;15.20;;;9.40;;
22557;SDS011;11445;53.816;8.902;2024-03-06T13:03:08;13.98;;;9.38;;
22557;SDS011;11445;53.816;8.902;2024-03-06T13:05:35;18.20;;;10.23;;
22557;SDS011;11445;53.816;8.902;2024-03-06T13:08:02;15.23;;;9.63;;
22557;SDS011;11445;53.816;8.902;2024-03-06T13:10:29;13.85;;;9.13;;
22557;SDS011;11445;53.816;8.902;2024-03-06T13:12:57;12.63;;;9.05;;
22557;SDS011;11445;53.816;8.902;2024-03-06T13:15:23;13.32;;;9.68;;
22557;SDS011;11445;53.816;8.902;2024-03-06T13:17:50;16.10;;;9.52;;
22557;SDS011;11445;53.816;8.902;2024-03-06T13:20:19;15.35;;;10.23;;
22557;SDS011;11445;53.816;8.902;2024-03-06T13:22:46;16.10;;;10.18;;
22557;SDS011;11445;53.816;8.902;2024-03-06T13:25:12;17.80;;;10.50;;
22557;SDS011;11445;53.816;8.902;2024-03-06T13:27:39;16.00;;;10.35;;
22557;SDS011;11445;53.816;8.902;2024-03-06T13:30:07;15.10;;;10.18;;
22557;SDS011;11445;53.816;8.902;2024-03-06T13:32:34;18.55;;;9.75;;
22557;SDS011;11445;53.816;8.902;2024-03-06T13:35:01;18.45;;;10.25;;
22557;SDS011;11445;53.816;8.902;2024-03-06T13:37:29;13.52;;;9.98;;
22557;SDS011;11445;53.816;8.902;2024-03-06T13:39:56;16.58;;;10.25;;
22557;SDS011;11445;53.816;8.902;2024-03-06T13:42:25;18.13;;;11.40;;
22557;SDS011;11445;53.816;8.902;2024-03-06T13:44:52;21.88;;;11.43;;
22557;SDS011;11445;53.816;8.902;2024-03-06T13:47:20;13.80;;;10.02;;
22557;SDS011;11445;53.816;8.902;2024-03-06T13:49:48;15.93;;;9.45;;
22557;SDS011;11445;53.816;8.902;2024-03-06T13:52:15;15.50;;;9.00;;
22557;SDS011;11445;53.816;8.902;2024-03-06T13:54:46;16.42;;;8.57;;
22557;SDS011;11445;53.816;8.902;2024-03-06T13:57:14;14.52;;;9.63;;
22557;SDS011;11445;53.816;8.902;2024-03-06T13:59:41;17.67;;;9.55;;
22557;SDS011;11445;53.816;8.902;2024-03-06T14:02:08;13.38;;;8.68;;
22557;SDS011;11445;53.816;8.902;2024-03-06T14:04:35;17.73;;;10.25;;
22557;SDS011;11445;53.816;8.902;2024-03-06T14:07:02;17.45;;;9.93;;
22557;SDS011;11445;53.816;8.902;2024-03-06T14:09:29;19.08;;;9.25;;
22557;SDS011;11445;53.816;8.902;2024-03-06T14:11:57;15.15;;;9.45;;
22557;SDS011;11445;53.816;8.902;2024-03-06T14:14:24;17.20;;;9.00;;
22557;SDS011;11445;53.816;8.902;2024-03-06T14:16:51;14.90;;;8.60;;
22557;SDS011;11445;53.816;8.902;2024-03-06T14:19:18;15.82;;;9.75;;
22557;SDS011;11445;53.816;8.902;2024-03-06T14:21:46;12.25;;;8.70;;
22557;SDS011;11445;53.816;8.902;2024-03-06T14:24:13;17.60;;;8.65;;
22557;SDS011;11445;53.816;8.902;2024-03-06T14:26:40;15.43;;;9.32;;
22557;SDS011;11445;53.816;8.902;2024-03-06T14:29:08;14.80;;;8.93;;
22557;SDS011;11445;53.816;8.902;2024-03-06T14:31:35;15.77;;;8.88;;
22557;SDS011;11445;53.816;8.902;2024-03-06T14:34:02;23.50;;;8.80;;
22557;SDS011;11445;53.816;8.902;2024-03-06T14:36:29;21.15;;;9.48;;